createdAt,value
2023-05-03T00:00:46.474Z,3.47
2023-05-03T00:03:14.969Z,2.80
2023-05-03T00:05:44.908Z,4.97
2023-05-03T00:08:13.443Z,2.93
2023-05-03T00:10:41.910Z,3.80
2023-05-03T00:13:10.359Z,2.50
2023-05-03T00:15:38.882Z,6.27
2023-05-03T00:18:07.453Z,3.73
2023-05-03T00:20:36.080Z,4.17
2023-05-03T00:23:06.403Z,7.53
2023-05-03T00:25:34.922Z,3.10
2023-05-03T00:28:03.354Z,3.87
2023-05-03T00:30:31.939Z,2.90
2023-05-03T00:33:00.344Z,3.73
2023-05-03T00:35:29.095Z,3.87
2023-05-03T00:37:57.569Z,7.27
2023-05-03T00:40:28.949Z,3.07
2023-05-03T00:42:57.405Z,3.93
2023-05-03T00:45:26.025Z,5.60
2023-05-03T00:47:54.656Z,2.20
2023-05-03T00:50:23.690Z,3.87
2023-05-03T00:52:53.327Z,3.67
2023-05-03T00:55:22.810Z,3.07
2023-05-03T00:57:52.597Z,2.97
2023-05-03T01:00:22.322Z,4.13
2023-05-03T01:02:50.905Z,3.97
2023-05-03T01:05:19.881Z,3.53
2023-05-03T01:08:05.279Z,3.67
2023-05-03T01:10:43.238Z,3.73
2023-05-03T01:13:25.911Z,2.20
2023-05-03T01:16:02.595Z,5.03
2023-05-03T01:18:33.751Z,3.77
2023-05-03T01:21:05.196Z,2.77
2023-05-03T01:23:43.867Z,2.27
2023-05-03T01:26:24.019Z,4.10
2023-05-03T01:28:53.344Z,3.53
2023-05-03T01:31:30.392Z,3.40
2023-05-03T01:34:26.437Z,2.30
2023-05-03T01:36:59.837Z,5.60
2023-05-03T01:39:49.809Z,7.83
2023-05-03T01:42:21.694Z,5.30
2023-05-03T01:44:52.026Z,3.03
2023-05-03T01:47:20.922Z,5.07
2023-05-03T01:49:49.395Z,4.67
2023-05-03T01:52:42.473Z,2.57
2023-05-03T01:55:11.588Z,3.03
2023-05-03T01:57:41.470Z,2.43
2023-05-03T02:00:11.800Z,2.60
2023-05-03T02:02:40.331Z,2.70
2023-05-03T02:05:11.095Z,2.60
2023-05-03T02:07:39.611Z,4.70
2023-05-03T02:10:14.406Z,3.60
2023-05-03T02:12:45.599Z,2.20
2023-05-03T02:15:20.197Z,5.50
2023-05-03T02:17:49.718Z,4.60
2023-05-03T02:20:18.664Z,4.17
2023-05-03T02:22:47.132Z,2.53
2023-05-03T02:25:15.619Z,3.20
2023-05-03T02:27:45.450Z,2.80
2023-05-03T02:30:15.304Z,3.53
2023-05-03T02:32:43.823Z,3.23
2023-05-03T02:35:37.622Z,3.57
2023-05-03T02:38:06.055Z,3.10
2023-05-03T02:40:34.579Z,3.03
2023-05-03T02:43:04.479Z,6.33
2023-05-03T02:45:32.968Z,5.50
2023-05-03T02:50:43.902Z,3.57
2023-05-03T02:53:12.568Z,3.63
2023-05-03T02:55:41.645Z,6.90
2023-05-03T02:58:11.528Z,3.97
2023-05-03T03:00:40.061Z,3.07
2023-05-03T03:03:08.611Z,2.93
2023-05-03T03:05:37.266Z,3.13
2023-05-03T03:08:06.777Z,3.97
2023-05-03T03:10:35.326Z,5.33
2023-05-03T03:13:03.880Z,4.10
2023-05-03T03:15:58.729Z,3.43
2023-05-03T03:18:27.188Z,11.70
2023-05-03T03:20:55.641Z,3.40
2023-05-03T03:23:24.329Z,3.37
2023-05-03T03:25:53.125Z,3.23
2023-05-03T03:28:21.863Z,2.60
2023-05-03T03:30:50.601Z,3.57
2023-05-03T03:33:24.325Z,5.43
2023-05-03T03:35:53.112Z,4.27
2023-05-03T03:38:21.721Z,3.10
2023-05-03T03:40:50.414Z,4.63
2023-05-03T03:43:18.918Z,3.03
2023-05-03T03:45:47.358Z,6.20
2023-05-03T03:48:15.902Z,3.53
2023-05-03T03:50:47.071Z,2.80
2023-05-03T03:53:15.536Z,4.07
2023-05-03T03:55:43.969Z,4.13
2023-05-03T03:58:12.501Z,6.37
2023-05-03T04:00:44.497Z,4.10
2023-05-03T04:03:13.057Z,4.43
2023-05-03T04:05:41.708Z,4.97
2023-05-03T04:08:11.611Z,2.70
2023-05-03T04:10:40.062Z,3.53
2023-05-03T04:13:33.509Z,3.13
2023-05-03T04:16:03.943Z,6.43
2023-05-03T04:18:33.170Z,5.23
2023-05-03T04:21:04.479Z,4.07
2023-05-03T04:23:34.319Z,5.10
2023-05-03T04:26:04.855Z,3.80
2023-05-03T04:28:33.970Z,5.33
2023-05-03T04:31:02.471Z,3.27
2023-05-03T04:33:56.692Z,5.37
2023-05-03T04:36:26.737Z,4.87
2023-05-03T04:38:56.920Z,5.10
2023-05-03T04:41:25.716Z,3.67
2023-05-03T04:43:54.797Z,6.97
2023-05-03T04:46:23.301Z,4.23
2023-05-03T04:48:51.787Z,6.90
2023-05-03T04:51:20.257Z,6.40
2023-05-03T04:53:48.713Z,3.13
2023-05-03T04:56:20.572Z,3.07
2023-05-03T04:58:49.066Z,4.17
2023-05-03T05:01:17.559Z,2.90
2023-05-03T05:03:46.189Z,3.70
2023-05-03T05:06:39.640Z,3.17
2023-05-03T05:09:09.217Z,4.80
2023-05-03T05:11:39.098Z,4.00
2023-05-03T05:14:07.519Z,5.23
2023-05-03T05:16:36.094Z,6.53
2023-05-03T05:19:05.131Z,4.27
2023-05-03T05:21:34.131Z,3.07
2023-05-03T05:24:03.129Z,4.77
2023-05-03T05:26:32.081Z,5.97
2023-05-03T05:29:02.011Z,6.27
2023-05-03T05:31:30.768Z,4.83
2023-05-03T05:33:59.435Z,4.87
2023-05-03T05:36:37.994Z,4.90
2023-05-03T05:39:06.501Z,4.87
2023-05-03T05:41:34.949Z,4.73
2023-05-03T05:44:05.130Z,4.43
2023-05-03T05:46:46.546Z,4.60
2023-05-03T05:49:15.082Z,4.47
2023-05-03T05:51:46.799Z,5.33
2023-05-03T05:54:16.314Z,4.60
2023-05-03T05:56:44.763Z,7.97
2023-05-03T05:59:14.654Z,7.20
2023-05-03T06:02:16.669Z,4.27
2023-05-03T06:04:46.823Z,6.60
2023-05-03T06:07:16.653Z,7.07
2023-05-03T06:09:45.116Z,6.07
2023-05-03T06:12:13.782Z,5.57
2023-05-03T06:14:55.427Z,5.87
2023-05-03T06:17:30.352Z,7.60
2023-05-03T06:19:59.656Z,6.27
2023-05-03T06:22:28.168Z,5.27
2023-05-03T06:24:57.231Z,6.67
2023-05-03T06:27:25.929Z,4.43
2023-05-03T06:29:55.837Z,3.73
2023-05-03T06:32:25.424Z,5.23
2023-05-03T06:34:54.190Z,3.93
2023-05-03T06:37:39.881Z,5.43
2023-05-03T06:40:10.029Z,3.80
2023-05-03T06:42:38.609Z,3.00
2023-05-03T06:45:10.018Z,4.50
2023-05-03T06:47:40.225Z,7.03
2023-05-03T06:50:10.146Z,3.83
2023-05-03T06:52:38.673Z,5.03
2023-05-03T06:55:33.658Z,7.83
2023-05-03T06:58:02.142Z,4.47
2023-05-03T07:00:32.078Z,6.03
2023-05-03T07:03:00.580Z,7.43
2023-05-03T07:05:29.037Z,6.13
2023-05-03T07:07:57.464Z,8.00
2023-05-03T07:10:30.813Z,4.77
2023-05-03T07:12:59.678Z,6.00
2023-05-03T07:15:28.170Z,5.50
2023-05-03T07:17:57.992Z,8.53
2023-05-03T07:20:26.923Z,5.77
2023-05-03T07:22:55.809Z,13.33
2023-05-03T07:25:32.730Z,7.63
2023-05-03T07:28:01.677Z,5.53
2023-05-03T07:30:30.461Z,6.77
2023-05-03T07:33:00.855Z,5.43
2023-05-03T07:35:31.557Z,5.80
2023-05-03T07:38:00.114Z,5.47
2023-05-03T07:40:32.698Z,5.73
2023-05-03T07:43:01.394Z,5.70
2023-05-03T07:45:30.010Z,6.33
2023-05-03T07:48:25.249Z,5.83
2023-05-03T07:50:53.770Z,8.33
2023-05-03T07:53:22.327Z,4.00
2023-05-03T07:55:54.355Z,5.53
2023-05-03T07:58:40.619Z,4.10
2023-05-03T08:01:11.624Z,4.47
2023-05-03T08:03:41.819Z,4.73
2023-05-03T08:06:10.648Z,4.63
2023-05-03T08:08:39.190Z,4.03
2023-05-03T08:11:07.650Z,4.80
2023-05-03T08:13:36.350Z,4.70
2023-05-03T08:16:05.903Z,5.97
2023-05-03T08:18:34.513Z,5.93
2023-05-03T08:21:04.534Z,7.73
2023-05-03T08:23:33.033Z,4.93
2023-05-03T08:26:04.311Z,4.73
2023-05-03T08:28:32.825Z,5.13
2023-05-03T08:31:03.775Z,5.53
2023-05-03T08:33:32.408Z,4.27
2023-05-03T08:36:00.965Z,7.03
2023-05-03T08:38:31.516Z,5.30
2023-05-03T08:41:30.728Z,6.07
2023-05-03T08:44:23.602Z,4.47
2023-05-03T08:46:52.580Z,7.07
2023-05-03T08:49:22.552Z,5.70
2023-05-03T08:51:52.956Z,4.83
2023-05-03T08:57:25.960Z,7.87
2023-05-03T08:59:58.582Z,4.13
2023-05-03T09:02:28.280Z,6.87
2023-05-03T09:04:57.820Z,4.90
2023-05-03T09:07:26.307Z,7.90
2023-05-03T09:09:57.348Z,5.10
2023-05-03T09:12:50.898Z,6.10
2023-05-03T09:15:23.432Z,3.60
2023-05-03T09:18:13.080Z,6.03
2023-05-03T09:20:51.113Z,4.77
2023-05-03T09:23:29.767Z,4.23
2023-05-03T09:26:01.095Z,5.37
2023-05-03T09:28:29.805Z,6.90
2023-05-03T09:31:10.243Z,6.50
2023-05-03T09:33:40.473Z,5.07
2023-05-03T09:36:11.007Z,6.13
2023-05-03T09:38:39.571Z,5.07
2023-05-03T09:41:10.003Z,4.60
2023-05-03T09:43:51.366Z,5.63
2023-05-03T09:46:20.722Z,6.93
2023-05-03T09:48:50.274Z,5.60
2023-05-03T09:51:19.098Z,6.00
2023-05-03T09:53:48.341Z,5.30
2023-05-03T09:56:26.709Z,6.30
2023-05-03T09:58:55.923Z,5.73
2023-05-03T10:01:26.427Z,5.80
2023-05-03T10:04:02.468Z,6.17
2023-05-03T10:06:39.356Z,6.23
2023-05-03T10:09:16.876Z,5.27
2023-05-03T10:12:13.398Z,5.50
2023-05-03T10:14:43.674Z,7.20
2023-05-03T10:17:20.024Z,7.90
2023-05-03T10:19:53.912Z,4.90
2023-05-03T10:22:22.836Z,9.43
2023-05-03T10:25:12.636Z,5.00
2023-05-03T10:28:03.584Z,6.87
2023-05-03T10:30:34.771Z,5.40
2023-05-03T10:33:32.612Z,5.20
2023-05-03T10:36:05.687Z,5.53
2023-05-03T10:38:34.183Z,5.93
2023-05-03T10:41:03.972Z,5.43
2023-05-03T10:43:46.924Z,5.43
2023-05-03T10:46:36.619Z,4.57
2023-05-03T10:49:22.082Z,4.97
2023-05-03T10:51:52.752Z,8.00
2023-05-03T10:54:21.258Z,5.03
2023-05-03T10:56:57.617Z,7.27
2023-05-03T10:59:46.950Z,6.27
2023-05-03T11:02:25.264Z,4.47
2023-05-03T11:04:57.380Z,4.53
2023-05-03T11:07:26.043Z,4.43
2023-05-03T11:09:54.812Z,7.20
2023-05-03T11:12:23.445Z,4.97
2023-05-03T11:14:53.594Z,4.60
2023-05-03T11:17:22.480Z,4.97
2023-05-03T11:19:51.792Z,5.33
2023-05-03T11:22:20.698Z,4.10
2023-05-03T11:24:51.288Z,7.00
2023-05-03T11:27:25.429Z,3.87
2023-05-03T11:30:12.166Z,4.70
2023-05-03T11:32:40.994Z,4.00
2023-05-03T11:35:37.375Z,4.30
2023-05-03T11:38:05.836Z,5.07
2023-05-03T11:40:34.339Z,5.33
2023-05-03T11:43:02.944Z,5.87
2023-05-03T11:45:41.158Z,7.17
2023-05-03T11:48:10.072Z,5.23
2023-05-03T11:50:51.753Z,4.70
2023-05-03T11:53:48.387Z,5.87
2023-05-03T11:56:18.957Z,4.57
2023-05-03T11:58:57.247Z,3.93
2023-05-03T12:01:29.830Z,7.00
2023-05-03T12:04:01.272Z,5.20
2023-05-03T12:06:33.970Z,5.23
2023-05-03T12:09:05.238Z,6.97
2023-05-03T12:11:43.945Z,5.70
2023-05-03T12:14:13.192Z,4.47
2023-05-03T12:16:51.833Z,5.60
2023-05-03T12:19:31.764Z,4.20
2023-05-03T12:22:18.192Z,6.67
2023-05-03T12:24:52.160Z,5.47
2023-05-03T12:27:23.801Z,4.40
2023-05-03T12:29:57.319Z,6.90
2023-05-03T12:32:27.368Z,7.10
2023-05-03T12:34:57.576Z,4.17
2023-05-03T12:37:27.600Z,4.00
2023-05-03T12:40:34.267Z,4.43
2023-05-03T12:43:04.558Z,3.97
2023-05-03T12:45:34.518Z,4.17
2023-05-03T12:48:05.443Z,6.20
2023-05-03T12:50:37.994Z,4.63
2023-05-03T12:53:09.933Z,5.07
2023-05-03T12:55:42.486Z,5.40
2023-05-03T13:03:44.204Z,4.43
2023-05-03T13:06:15.690Z,4.60
2023-05-03T13:08:50.324Z,5.00
2023-05-03T13:11:20.297Z,7.10
2023-05-03T13:13:48.899Z,7.33
2023-05-03T13:16:21.752Z,4.97
2023-05-03T13:18:55.155Z,5.80
2023-05-03T13:21:23.962Z,5.53
2023-05-03T13:23:52.693Z,4.30
2023-05-03T13:26:21.246Z,7.03
2023-05-03T13:28:50.209Z,4.27
2023-05-03T13:31:19.726Z,5.83
2023-05-03T13:33:49.240Z,6.33
2023-05-03T13:36:44.422Z,4.70
2023-05-03T13:39:12.815Z,5.47
2023-05-03T13:41:42.307Z,6.10
2023-05-03T13:44:11.775Z,5.93
2023-05-03T13:46:41.593Z,8.57
2023-05-03T13:49:10.570Z,5.87
2023-05-03T13:51:44.085Z,8.03
2023-05-03T13:54:12.605Z,6.03
2023-05-03T13:56:42.931Z,6.93
2023-05-03T13:59:15.143Z,6.43
2023-05-03T14:01:44.061Z,6.33
2023-05-03T14:04:12.560Z,6.53
2023-05-03T14:06:41.916Z,6.90
2023-05-03T14:09:12.204Z,7.83
2023-05-03T14:11:46.053Z,7.77
2023-05-03T14:14:14.576Z,6.57
2023-05-03T14:16:43.165Z,9.20
2023-05-03T14:19:12.336Z,6.80
2023-05-03T14:21:42.896Z,6.97
2023-05-03T14:24:14.103Z,8.63
2023-05-03T14:26:42.730Z,7.43
2023-05-03T14:29:11.261Z,7.73
2023-05-03T14:32:06.022Z,8.50
2023-05-03T14:34:34.525Z,9.53
2023-05-03T14:37:03.368Z,9.30
2023-05-03T14:39:33.228Z,8.70
2023-05-03T14:42:03.239Z,8.30
2023-05-03T14:44:31.774Z,8.40
2023-05-03T14:47:00.338Z,8.20
2023-05-03T14:49:29.757Z,10.77
2023-05-03T14:52:21.330Z,10.80
2023-05-03T14:54:51.250Z,9.57
2023-05-03T14:57:19.739Z,8.27
2023-05-03T14:59:48.621Z,9.50
2023-05-03T15:02:17.148Z,10.33
2023-05-03T15:04:45.653Z,9.93
2023-05-03T15:07:15.448Z,9.93
2023-05-03T15:09:44.873Z,9.23
2023-05-03T15:12:14.848Z,8.77
2023-05-03T15:14:43.499Z,9.80
2023-05-03T15:17:12.983Z,9.43
2023-05-03T15:19:41.988Z,8.73
2023-05-03T15:22:10.460Z,10.40
2023-05-03T15:24:39.083Z,9.43
2023-05-03T15:27:07.582Z,11.73
2023-05-03T15:29:37.694Z,11.10
2023-05-03T15:32:06.659Z,9.90
2023-05-03T15:34:35.366Z,10.30
2023-05-03T15:37:04.071Z,9.23
2023-05-03T15:39:32.806Z,9.80
2023-05-03T15:42:01.207Z,9.50
2023-05-03T15:44:56.418Z,9.47
2023-05-03T15:47:24.869Z,11.47
2023-05-03T15:49:53.467Z,10.97
2023-05-03T15:52:23.224Z,11.13
2023-05-03T15:54:52.791Z,12.17
2023-05-03T15:57:22.452Z,13.10
2023-05-03T15:59:51.094Z,14.30
2023-05-03T16:02:21.587Z,14.17
2023-05-03T16:04:50.985Z,12.03
2023-05-03T16:07:19.868Z,12.00
2023-05-03T16:09:48.446Z,12.90
2023-05-03T16:12:16.985Z,11.40
2023-05-03T16:14:45.435Z,11.40
2023-05-03T16:17:13.935Z,11.00
2023-05-03T16:19:44.117Z,12.07
2023-05-03T16:22:12.543Z,12.27
2023-05-03T16:24:41.048Z,13.33
2023-05-03T16:27:09.531Z,16.77
2023-05-03T16:29:38.952Z,15.90
2023-05-03T16:32:09.869Z,12.80
2023-05-03T16:34:38.843Z,12.37
2023-05-03T16:37:08.714Z,12.03
2023-05-03T16:39:37.631Z,9.90
2023-05-03T16:42:06.383Z,13.23
2023-05-03T16:44:34.910Z,13.00
2023-05-03T16:47:06.471Z,13.53
2023-05-03T16:49:36.015Z,13.90
2023-05-03T16:52:04.789Z,13.43
2023-05-03T16:54:34.698Z,13.57
2023-05-03T16:57:03.709Z,13.37
2023-05-03T16:59:32.286Z,13.03
2023-05-03T17:02:01.252Z,13.23
2023-05-03T17:04:29.765Z,12.20
2023-05-03T17:06:58.467Z,12.53
2023-05-03T17:09:27.146Z,12.00
2023-05-03T17:11:57.894Z,11.77
2023-05-03T17:14:26.553Z,13.20
2023-05-03T17:16:58.926Z,15.03
2023-05-03T17:19:28.148Z,13.23
2023-05-03T17:21:56.619Z,13.47
2023-05-03T17:24:25.096Z,14.17
2023-05-03T17:26:55.177Z,12.83
2023-05-03T17:29:25.599Z,13.80
2023-05-03T17:31:54.449Z,13.97
2023-05-03T17:34:25.033Z,11.93
2023-05-03T17:36:56.226Z,14.23
2023-05-03T17:39:40.245Z,13.67
2023-05-03T17:42:09.123Z,12.60
2023-05-03T17:44:40.326Z,13.33
2023-05-03T17:47:09.451Z,12.37
2023-05-03T17:49:38.207Z,14.10
2023-05-03T17:52:07.012Z,11.67
2023-05-03T17:54:36.402Z,13.13
2023-05-03T17:57:05.657Z,13.30
2023-05-03T17:59:34.527Z,13.43
2023-05-03T18:02:04.611Z,33.20
2023-05-03T18:04:33.147Z,19.37
2023-05-03T18:07:01.582Z,19.37
2023-05-03T18:09:31.226Z,18.80
2023-05-03T18:12:03.493Z,17.43
2023-05-03T18:14:32.051Z,16.27
2023-05-03T18:17:00.549Z,16.07
2023-05-03T18:19:56.737Z,19.50
2023-05-03T18:22:27.547Z,14.43
2023-05-03T18:27:46.956Z,16.40
2023-05-03T18:30:16.378Z,14.73
2023-05-03T18:32:44.925Z,12.70
2023-05-03T18:35:15.113Z,13.80
2023-05-03T18:37:43.847Z,13.77
2023-05-03T18:40:13.331Z,14.13
2023-05-03T18:42:41.827Z,13.37
2023-05-03T18:45:39.069Z,13.43
2023-05-03T18:48:08.529Z,13.27
2023-05-03T18:50:39.389Z,12.77
2023-05-03T18:53:10.390Z,14.20
2023-05-03T18:55:38.845Z,14.33
2023-05-03T18:58:07.349Z,13.80
2023-05-03T19:00:35.849Z,15.00
2023-05-03T19:03:05.960Z,16.03
2023-05-03T19:05:34.937Z,19.40
2023-05-03T19:08:04.887Z,15.43
2023-05-03T19:10:33.391Z,16.53
2023-05-03T19:13:03.151Z,18.13
2023-05-03T19:15:35.715Z,16.13
2023-05-03T19:18:04.330Z,15.23
2023-05-03T19:20:33.117Z,14.57
2023-05-03T19:23:01.660Z,18.30
2023-05-03T19:25:31.806Z,15.10
2023-05-03T19:28:00.265Z,13.83
2023-05-03T19:30:28.823Z,14.63
2023-05-03T19:32:57.446Z,13.70
2023-05-03T19:35:26.188Z,13.03
2023-05-03T19:37:54.752Z,14.73
2023-05-03T19:40:24.780Z,19.50
2023-05-03T19:42:56.515Z,13.30
2023-05-03T19:45:25.497Z,13.97
2023-05-03T19:47:53.966Z,12.63
2023-05-03T19:50:22.679Z,14.27
2023-05-03T19:52:53.716Z,16.87
2023-05-03T19:55:22.608Z,14.37
2023-05-03T19:57:51.115Z,13.03
2023-05-03T20:00:21.666Z,14.73
2023-05-03T20:02:56.760Z,14.30
2023-05-03T20:05:50.403Z,14.23
2023-05-03T20:08:18.985Z,13.97
2023-05-03T20:10:49.759Z,12.37
2023-05-03T20:13:18.387Z,13.03
2023-05-03T20:15:48.608Z,12.57
2023-05-03T20:18:17.320Z,14.27
2023-05-03T20:20:45.880Z,12.63
2023-05-03T20:23:16.261Z,14.43
2023-05-03T20:25:44.718Z,13.57
2023-05-03T20:28:13.228Z,13.80
2023-05-03T20:30:54.988Z,13.93
2023-05-03T20:33:48.276Z,13.03
2023-05-03T20:36:16.754Z,14.77
2023-05-03T20:38:45.916Z,16.10
2023-05-03T20:41:14.562Z,17.33
2023-05-03T20:43:43.107Z,20.73
2023-05-03T20:46:13.068Z,18.67
2023-05-03T20:48:41.618Z,18.67
2023-05-03T20:51:10.381Z,17.43
2023-05-03T20:53:39.098Z,17.07
2023-05-03T20:56:08.029Z,20.43
2023-05-03T20:58:36.781Z,16.67
2023-05-03T21:01:06.621Z,16.07
2023-05-03T21:03:36.604Z,14.80
2023-05-03T21:06:06.788Z,13.57
2023-05-03T21:08:36.861Z,14.80
2023-05-03T21:11:05.461Z,14.63
2023-05-03T21:13:35.872Z,16.20
2023-05-03T21:16:07.917Z,15.63
2023-05-03T21:18:37.752Z,17.13
2023-05-03T21:21:24.627Z,13.40
2023-05-03T21:23:54.768Z,13.23
2023-05-03T21:26:23.380Z,12.90
2023-05-03T21:28:52.055Z,14.53
2023-05-03T21:31:20.576Z,15.00
2023-05-03T21:33:51.004Z,13.10
2023-05-03T21:36:19.504Z,13.73
2023-05-03T21:39:13.173Z,14.20
2023-05-03T21:41:43.570Z,15.27
2023-05-03T21:44:12.144Z,14.03
2023-05-03T21:46:42.916Z,12.30
2023-05-03T21:49:12.835Z,13.80
2023-05-03T21:51:41.527Z,14.33
2023-05-03T21:54:09.969Z,11.20
2023-05-03T21:56:38.376Z,14.53
2023-05-03T21:59:22.951Z,11.83
2023-05-03T22:01:51.547Z,12.73
2023-05-03T22:04:21.739Z,13.93
2023-05-03T22:06:50.184Z,15.87
2023-05-03T22:09:18.819Z,17.40
2023-05-03T22:11:47.722Z,14.57
2023-05-03T22:14:16.237Z,13.40
2023-05-03T22:16:44.676Z,11.27
2023-05-03T22:19:13.346Z,10.57
2023-05-03T22:21:43.125Z,9.23
2023-05-03T22:24:11.611Z,10.70
2023-05-03T22:26:40.100Z,9.90
2023-05-03T22:29:09.226Z,10.03
2023-05-03T22:31:37.895Z,8.63
2023-05-03T22:34:06.476Z,9.73
2023-05-03T22:36:34.942Z,9.17
2023-05-03T22:39:05.761Z,10.07
2023-05-03T22:41:59.067Z,9.13
2023-05-03T22:44:27.873Z,7.63
2023-05-03T22:46:56.388Z,9.57
2023-05-03T22:49:25.108Z,9.20
2023-05-03T22:51:53.592Z,8.87
2023-05-03T22:54:23.792Z,13.17
2023-05-03T22:57:17.060Z,14.73
2023-05-03T22:59:46.884Z,11.03
2023-05-03T23:02:15.466Z,12.17
2023-05-03T23:04:44.155Z,13.53
2023-05-03T23:07:12.714Z,9.77
2023-05-03T23:09:42.610Z,8.33
2023-05-03T23:12:11.798Z,8.97
2023-05-03T23:14:43.496Z,8.63
2023-05-03T23:17:12.018Z,9.20
2023-05-03T23:19:40.487Z,9.43
2023-05-03T23:22:09.167Z,8.33
2023-05-03T23:24:37.706Z,8.57
2023-05-03T23:27:07.776Z,9.07
2023-05-03T23:29:36.594Z,8.70
2023-05-03T23:32:06.103Z,7.70
2023-05-03T23:34:35.233Z,8.20
2023-05-03T23:37:03.695Z,9.53
2023-05-03T23:39:32.158Z,8.87
2023-05-03T23:42:00.541Z,10.33
2023-05-03T23:44:46.414Z,12.17
2023-05-03T23:47:18.888Z,10.30
2023-05-03T23:49:47.307Z,11.37
2023-05-03T23:52:16.938Z,9.10
2023-05-03T23:54:45.456Z,9.57
2023-05-03T23:57:13.922Z,9.97
2023-05-03T23:59:44.308Z,9.87
